Time;durP1;ratioP1;P1;durP2;ratioP2;P2;SDS_P1;SDS_P2;PMS_P1;PMS_P2;Temp;Humidity;BMP_temperature;BMP_pressure;BME280_temperature;BME280_humidity;BME280_pressure;Samples;Min_cycle;Max_cycle;Signal;HPM_P1;HPM_P2
2022/07/15 02:14:29;;;;;;;;;1.67;1.00;;;;;22.53;61.02;101872.47;6313839;22;46321;-96
2022/07/15 02:17:05;;;;;;;;;3.00;3.00;;;;;22.51;61.03;101868.88;6255857;22;46163;31
2022/07/15 02:19:32;;;;;;;;;2.33;2.00;;;;;22.32;60.82;101847.22;6311877;22;45229;-96
2022/07/15 03:10:57;;;;;;;;;2.67;2.67;;;;;21.73;62.97;101868.59;6311396;22;45072;-96
2022/07/15 03:22:01;;;;;;;;;4.00;4.00;;;;;21.39;62.68;101849.34;6298865;22;46094;-96
2022/07/15 03:25:17;;;;;;;;;3.00;3.00;;;;;21.43;62.88;101862.75;6309592;22;46334;-96
2022/07/15 03:37:23;;;;;;;;;4.33;4.33;;;;;21.29;63.53;101856.25;6293678;22;46120;-96
2022/07/15 03:39:58;;;;;;;;;2.33;2.33;;;;;21.33;63.13;101860.78;6302709;22;45582;-96
2022/07/15 03:42:25;;;;;;;;;4.00;4.00;;;;;21.20;63.06;101831.22;6298232;22;45338;-96
2022/07/15 03:44:50;;;;;;;;;3.00;3.00;;;;;21.14;63.20;101831.09;6270889;22;44830;-96
2022/07/15 03:47:36;;;;;;;;;4.00;3.00;;;;;21.13;63.45;101829.28;6294433;22;44754;-96
2022/07/15 03:50:02;;;;;;;;;5.00;5.00;;;;;21.16;63.48;101828.44;6269492;22;47886;-96
2022/07/15 03:52:30;;;;;;;;;4.33;4.33;;;;;21.27;63.64;101840.22;6289159;22;45422;-96
2022/07/15 04:00:04;;;;;;;;;5.00;5.00;;;;;21.11;63.47;101833.69;6286372;22;45240;-96
2022/07/15 04:02:40;;;;;;;;;4.00;3.00;;;;;21.19;63.37;101856.09;6259006;22;45549;-96
2022/07/15 04:05:20;;;;;;;;;3.00;3.00;;;;;21.11;63.84;101836.34;6260359;22;44947;-96
2022/07/15 04:07:47;;;;;;;;;3.33;3.33;;;;;21.20;63.33;101857.91;6354054;22;45063;-96
2022/07/15 04:10:14;;;;;;;;;4.00;2.33;;;;;21.11;63.59;101841.69;6329064;22;47430;-96
2022/07/15 04:12:41;;;;;;;;;5.33;3.00;;;;;21.10;63.31;101845.25;6355410;22;45059;-96
2022/07/15 04:15:08;;;;;;;;;2.33;2.33;;;;;21.16;63.71;101852.44;6352519;22;44716;-96
2022/07/15 04:20:30;;;;;;;;;5.33;4.00;;;;;21.07;63.67;101851.44;6336167;22;45517;-96
2022/07/15 04:22:55;;;;;;;;;4.00;4.00;;;;;21.03;63.67;101846.88;6324139;22;45246;-96
2022/07/15 04:25:22;;;;;;;;;4.00;4.00;;;;;21.00;63.82;101838.81;6346602;22;45276;-96
2022/07/15 04:30:23;;;;;;;;;2.00;2.00;;;;;21.03;63.89;101846.00;6323096;22;46371;-96
2022/07/15 04:32:52;;;;;;;;;5.00;4.00;;;;;21.05;64.35;101844.25;6243505;22;45703;-96
2022/07/15 04:35:28;;;;;;;;;3.33;3.33;;;;;21.05;63.94;101841.59;6295910;22;44785;-96
2022/07/15 04:40:49;;;;;;;;;4.33;4.33;;;;;21.12;64.66;101847.94;6314352;22;46543;-96
2022/07/15 04:43:40;;;;;;;;;5.00;4.00;;;;;21.24;64.24;101860.59;6327624;22;44622;-96
2022/07/15 04:53:51;;;;;;;;;2.33;2.33;;;;;21.20;64.65;101840.97;6277514;22;46214;-96
2022/07/15 05:03:54;;;;;;;;;3.67;3.67;;;;;21.38;65.22;101842.19;6298156;22;44782;-96
2022/07/15 05:07:00;;;;;;;;;;;;;;;;;;;;;
2022/07/15 05:19:58;;;;;;;;;3.00;2.33;;;;;21.59;64.83;101857.69;6277589;22;45867;-96
2022/07/15 05:22:32;;;;;;;;;4.67;4.00;;;;;21.61;65.46;101847.94;6286802;22;45648;-96
2022/07/15 05:24:58;;;;;;;;;3.33;3.33;;;;;21.65;65.12;101843.50;6346669;22;44892;-96
2022/07/15 05:27:56;;;;;;;;;;;;;;;;;;;;;
2022/07/15 05:30:40;;;;;;;;;4.00;4.00;;;;;21.74;65.40;101856.13;6360038;22;44855;-96
2022/07/15 05:33:30;;;;;;;;;3.00;3.00;;;;;21.77;65.52;101857.09;6306862;22;45821;-96
2022/07/15 05:46:13;;;;;;;;;4.00;3.00;;;;;21.92;65.09;101871.59;6310699;22;44811;-96
2022/07/15 06:00:02;;;;;;;;;4.33;2.33;;;;;22.10;65.57;101867.41;6296991;22;46557;-95
2022/07/15 06:05:12;;;;;;;;;0.00;0.00;;;;;22.11;65.53;101869.22;6308526;22;46463;-96
2022/07/15 06:07:37;;;;;;;;;5.00;4.33;;;;;22.16;65.69;101864.81;6293185;22;44793;-96
2022/07/15 06:10:04;;;;;;;;;3.33;3.33;;;;;22.27;65.64;101875.69;6296337;22;45635;-95
2022/07/15 06:31:33;;;;;;;;;3.00;2.00;;;;;22.72;65.09;101903.97;6276883;22;46610;31
2022/07/15 06:33:59;;;;;;;;;3.00;3.00;;;;;22.72;65.16;101891.47;6275220;22;45207;-89
2022/07/15 06:36:25;;;;;;;;;4.00;4.00;;;;;22.85;64.87;101913.03;6286294;22;46086;-91
2022/07/15 06:38:50;;;;;;;;;4.00;3.33;;;;;22.81;64.89;101898.72;6282206;22;45504;-89
2022/07/15 06:41:18;;;;;;;;;5.00;4.00;;;;;22.90;64.62;101922.03;6309115;22;44759;-89
2022/07/15 06:43:44;;;;;;;;;3.00;3.00;;;;;22.92;64.47;101914.91;6306218;22;45574;-92
2022/07/15 06:46:10;;;;;;;;;2.67;2.00;;;;;22.93;64.44;101919.41;6282511;22;45542;-91
2022/07/15 06:48:38;;;;;;;;;3.67;2.33;;;;;23.04;64.10;101934.69;6279695;22;46324;-91
2022/07/15 06:51:04;;;;;;;;;5.00;5.00;;;;;23.04;64.47;101932.03;6258434;22;45297;-96
2022/07/15 06:53:29;;;;;;;;;2.00;2.00;;;;;22.98;63.70;101924.81;6333630;22;46120;-92
2022/07/15 06:55:54;;;;;;;;;4.67;3.67;;;;;23.10;63.94;101935.66;6325042;22;47403;-95
2022/07/15 06:58:19;;;;;;;;;4.33;3.33;;;;;23.10;63.87;101930.31;6325386;22;52736;-95
2022/07/15 07:00:45;;;;;;;;;2.00;2.00;;;;;23.20;63.94;101928.63;6324099;22;45537;-94
2022/07/15 07:03:10;;;;;;;;;3.00;2.33;;;;;23.24;63.87;101923.31;6345657;22;45837;-94
2022/07/15 07:05:35;;;;;;;;;4.00;4.00;;;;;23.33;63.99;101929.66;6317309;22;47884;-94
2022/07/15 07:08:01;;;;;;;;;3.67;3.67;;;;;23.48;64.00;101943.19;6322626;22;44965;-95
2022/07/15 07:10:26;;;;;;;;;4.67;3.00;;;;;23.49;63.57;101928.91;6322036;22;45277;-94
2022/07/15 07:12:52;;;;;;;;;2.67;1.67;;;;;23.61;63.69;101939.78;6350207;22;44801;-95
2022/07/15 07:15:19;;;;;;;;;4.00;2.67;;;;;23.68;63.46;101943.44;6348444;22;45346;-94
2022/07/15 07:17:44;;;;;;;;;2.00;2.00;;;;;23.81;63.12;101951.59;6349696;22;45224;-94
2022/07/15 07:20:10;;;;;;;;;2.33;2.33;;;;;23.91;62.93;101965.97;6349388;22;45361;-95
2022/07/15 07:22:35;;;;;;;;;2.00;2.00;;;;;23.96;62.97;101966.91;6322970;22;45498;-93
2022/07/15 07:25:03;;;;;;;;;2.33;2.00;;;;;24.07;62.45;101958.97;6355098;22;45122;-95
2022/07/15 07:27:28;;;;;;;;;2.00;2.00;;;;;24.07;62.38;101950.91;6327651;22;45471;-92
2022/07/15 07:29:54;;;;;;;;;2.67;2.67;;;;;24.17;62.19;101968.84;6357632;22;44569;-94
2022/07/15 07:32:19;;;;;;;;;2.00;2.00;;;;;24.23;61.46;101970.69;6325948;22;45260;-96
2022/07/15 07:34:44;;;;;;;;;0.00;0.00;;;;;24.28;61.33;101968.97;6320641;22;46778;-95
2022/07/15 07:37:10;;;;;;;;;2.00;2.00;;;;;24.38;61.42;101971.75;6350400;22;45316;-96
2022/07/15 07:39:36;;;;;;;;;1.00;1.00;;;;;24.44;61.00;101971.75;6352625;22;45092;-96
2022/07/15 07:42:02;;;;;;;;;2.00;2.00;;;;;24.50;60.86;101976.28;6326417;22;44923;-95
2022/07/15 07:44:27;;;;;;;;;1.67;1.67;;;;;24.55;60.28;101977.22;6347571;22;45277;-94
2022/07/15 07:46:53;;;;;;;;;3.00;1.67;;;;;24.58;60.45;101982.59;6316420;22;45265;-93
2022/07/15 07:49:21;;;;;;;;;3.00;2.00;;;;;24.63;60.38;101986.22;6296807;22;44674;-95
2022/07/15 07:51:49;;;;;;;;;4.00;2.33;;;;;24.62;59.94;101975.44;6321995;22;45116;-95
2022/07/15 07:54:15;;;;;;;;;2.33;2.00;;;;;24.73;60.00;101981.78;6320216;22;48049;-94
2022/07/15 07:56:40;;;;;;;;;2.33;2.33;;;;;24.80;59.76;101982.72;6323834;22;45815;-96
2022/07/15 07:59:05;;;;;;;;;2.00;2.00;;;;;24.84;59.92;101976.44;6324146;22;45215;-94
2022/07/15 08:01:31;;;;;;;;;2.00;2.00;;;;;24.93;59.52;101977.38;6351699;22;45532;-94
2022/07/15 08:03:56;;;;;;;;;3.00;3.00;;;;;25.02;59.11;101982.84;6344811;22;48136;-95
2022/07/15 08:06:22;;;;;;;;;2.00;2.00;;;;;25.08;59.01;101981.97;6294702;22;44828;-95
2022/07/15 08:08:48;;;;;;;;;2.00;2.00;;;;;25.17;58.85;101989.19;6347353;22;45243;-94
2022/07/15 08:11:14;;;;;;;;;2.00;2.00;;;;;25.22;58.88;101979.34;6315610;22;45313;-95
2022/07/15 08:13:39;;;;;;;;;1.00;1.00;;;;;25.34;58.62;101989.22;6317215;22;46880;-95
2022/07/15 08:16:06;;;;;;;;;2.00;2.00;;;;;25.47;58.43;101991.94;6320479;22;45788;-96
2022/07/15 08:18:31;;;;;;;;;1.33;1.00;;;;;25.51;57.82;101986.56;6349047;22;44749;-91
2022/07/15 08:20:58;;;;;;;;;2.33;2.00;;;;;25.60;57.27;101988.41;6346143;22;44751;-92
2022/07/15 08:23:23;;;;;;;;;4.33;3.00;;;;;25.67;56.65;101989.28;6274161;22;47040;-92
2022/07/15 08:25:50;;;;;;;;;1.00;1.00;;;;;25.76;56.59;101993.81;6319637;22;45494;-93
2022/07/15 08:28:16;;;;;;;;;4.00;2.00;;;;;25.83;56.50;101994.72;6321334;22;45343;-92
2022/07/15 08:30:41;;;;;;;;;1.67;1.67;;;;;25.89;56.42;101992.06;6323457;22;45289;-93
2022/07/15 08:33:07;;;;;;;;;2.00;1.67;;;;;25.98;56.71;101993.84;6320339;22;46820;-90
2022/07/15 08:35:34;;;;;;;;;2.00;1.00;;;;;26.02;56.01;102001.03;6319767;22;63585;-92
2022/07/15 08:38:07;;;;;;;;;1.67;1.67;;;;;26.14;55.82;102004.59;6321901;22;45485;-93
2022/07/15 08:40:34;;;;;;;;;1.33;1.33;;;;;26.21;55.55;101999.22;6321483;22;45308;-92
2022/07/15 08:43:00;;;;;;;;;2.00;2.00;;;;;26.23;55.35;101996.53;6347638;22;46263;-92
2022/07/15 08:45:26;;;;;;;;;2.00;1.67;;;;;26.22;55.23;101989.34;6318301;22;45316;-91
2022/07/15 08:47:52;;;;;;;;;1.33;1.33;;;;;26.27;55.33;101995.63;6315784;22;45255;-91
2022/07/15 08:50:18;;;;;;;;;1.67;1.00;;;;;26.29;54.63;101995.63;6317680;22;45288;-92
2022/07/15 08:52:45;;;;;;;;;0.00;0.00;;;;;26.34;54.14;101993.81;6320070;22;48202;-89
2022/07/15 08:55:15;;;;;;;;;0.67;0.67;;;;;26.42;54.21;101992.00;6292198;22;44653;-88
2022/07/15 08:57:40;;;;;;;;;1.00;1.00;;;;;26.48;54.32;101990.25;6292443;22;45333;-91
2022/07/15 09:00:09;;;;;;;;;3.00;1.67;;;;;26.54;54.15;101984.88;6323812;22;45297;-92
2022/07/15 09:02:37;;;;;;;;;2.67;1.00;;;;;26.57;53.65;101995.59;6291654;22;47267;-91
2022/07/15 09:05:21;;;;;;;;;1.00;0.33;;;;;26.63;53.61;101990.22;6313947;22;45763;-91
2022/07/15 09:07:56;;;;;;;;;1.00;1.00;;;;;26.64;53.46;101981.25;6317320;22;45353;-91
2022/07/15 09:10:23;;;;;;;;;1.00;1.00;;;;;26.61;53.24;101985.72;6317964;22;45443;-90
2022/07/15 09:12:53;;;;;;;;;1.00;1.00;;;;;26.62;53.32;101979.47;6316507;22;45501;-90
2022/07/15 09:15:32;;;;;;;;;1.00;1.00;;;;;26.67;53.18;101994.69;6342759;22;44780;-91
2022/07/15 09:18:07;;;;;;;;;0.00;0.00;;;;;26.64;52.62;101977.66;6317058;22;44678;-92
2022/07/15 09:20:33;;;;;;;;;1.67;1.00;;;;;26.76;52.32;101984.78;6312336;22;45298;-92
2022/07/15 09:22:59;;;;;;;;;1.00;1.00;;;;;26.79;52.40;101982.09;6306715;22;47102;-90
2022/07/15 09:25:27;;;;;;;;;0.00;0.00;;;;;26.88;52.23;102002.69;6310063;22;45302;-87
2022/07/15 09:27:53;;;;;;;;;1.67;1.00;;;;;26.94;52.04;101991.91;6310470;22;45317;-87
2022/07/15 09:36:06;;;;;;;;;3.00;1.00;;;;;27.16;51.48;101981.06;6341524;22;45432;-90
2022/07/15 09:38:34;;;;;;;;;0.00;0.00;;;;;27.20;51.03;101982.84;6345230;22;45313;-90
2022/07/15 09:41:01;;;;;;;;;1.33;1.00;;;;;27.24;50.54;101980.16;6317703;22;45457;-90
2022/07/15 09:43:28;;;;;;;;;1.00;1.00;;;;;27.32;50.65;101975.59;6316734;22;47187;-91
2022/07/15 09:46:01;;;;;;;;;1.00;1.00;;;;;27.39;50.49;101989.94;6305636;22;45407;-88
2022/07/15 09:48:28;;;;;;;;;0.00;0.00;;;;;27.43;50.58;101970.13;6312444;22;45523;-88
2022/07/15 09:51:00;;;;;;;;;0.33;0.33;;;;;27.51;50.57;101970.09;6293287;22;45428;-91
2022/07/15 09:53:26;;;;;;;;;0.00;0.00;;;;;27.59;50.06;101960.16;6348228;22;46296;-92
2022/07/15 09:55:52;;;;;;;;;1.00;1.00;;;;;27.80;50.06;101977.13;6289317;22;45292;-91
2022/07/15 09:58:19;;;;;;;;;0.67;0.67;;;;;28.08;49.94;101968.78;6320973;22;45705;-91
2022/07/15 10:00:45;;;;;;;;;1.00;0.00;;;;;28.52;49.85;101972.88;6351742;22;44973;-93
2022/07/15 10:03:11;;;;;;;;;0.00;0.00;;;;;29.25;48.64;101979.19;6320000;22;46831;-93
2022/07/15 10:05:41;;;;;;;;;1.00;0.00;;;;;29.93;47.66;101972.78;6321867;22;45246;-93
2022/07/15 10:08:14;;;;;;;;;1.00;0.67;;;;;30.49;48.00;101949.28;6321934;22;45488;-93
2022/07/15 10:10:43;;;;;;;;;0.33;0.33;;;;;31.47;47.85;101967.06;6296791;22;45207;-95
2022/07/15 10:13:43;;;;;;;;;0.67;0.67;;;;;32.62;46.25;101979.50;6296553;22;47648;-95
2022/07/15 10:16:38;;;;;;;;;0.00;0.00;;;;;33.77;46.36;101985.13;6320946;22;45246;-90
2022/07/15 10:19:24;;;;;;;;;0.00;0.00;;;;;35.56;44.98;101977.69;6318826;22;45445;-92
2022/07/15 10:22:23;;;;;;;;;1.67;0.00;;;;;37.67;43.13;101967.19;6346162;22;45181;-94
2022/07/15 10:24:51;;;;;;;;;0.00;0.00;;;;;39.66;43.04;101962.84;6320005;22;48462;-93
2022/07/15 10:27:22;;;;;;;;;0.00;0.00;;;;;41.38;41.68;101973.19;6324332;22;45964;-93
2022/07/15 10:29:48;;;;;;;;;0.00;0.00;;;;;42.53;38.46;101965.28;6325694;22;45338;-93
2022/07/15 10:32:13;;;;;;;;;1.00;0.00;;;;;42.91;35.47;101974.50;6326270;22;45288;-93
2022/07/15 10:34:41;;;;;;;;;1.00;1.00;;;;;43.01;35.54;101966.44;6320335;22;46833;-95
2022/07/15 10:37:12;;;;;;;;;1.33;0.67;;;;;43.61;35.14;101973.88;6321196;22;45231;-93
2022/07/15 10:40:41;;;;;;;;;0.00;0.00;;;;;44.86;34.43;101959.44;6321686;22;45230;-95
2022/07/15 10:43:07;;;;;;;;;1.00;1.00;;;;;46.78;33.60;101967.94;6323642;22;45461;-95
2022/07/15 10:45:33;;;;;;;;;0.00;0.00;;;;;47.91;32.80;101949.97;6320679;22;47030;-93
2022/07/15 10:48:27;;;;;;;;;0.00;0.00;;;;;48.93;30.47;101964.16;6322655;22;45378;-96
2022/07/15 10:50:53;;;;;;;;;1.00;1.00;;;;;49.50;29.59;101962.09;6323790;22;45270;-95
2022/07/15 10:53:29;;;;;;;;;1.00;1.00;;;;;50.29;29.07;101958.44;6320408;22;45501;-96
2022/07/15 10:56:17;;;;;;;;;22.75;20.50;;;;;51.25;29.04;101963.94;6322001;22;47379;-94
2022/07/15 10:59:11;;;;;;;;;0.00;0.00;;;;;52.17;28.88;101944.19;6318472;22;45678;-93
2022/07/15 11:02:00;;;;;;;;;14.00;11.67;;;;;53.25;27.51;101964.28;6322430;22;45372;-93
2022/07/15 11:04:34;;;;;;;;;1.00;0.00;;;;;53.97;26.94;101963.06;6320637;22;45263;-94
2022/07/15 11:07:09;;;;;;;;;0.00;0.00;;;;;54.58;24.98;101964.72;6314460;22;47409;-93
2022/07/15 11:10:07;;;;;;;;;2.33;0.00;;;;;55.28;25.38;101963.31;6317085;22;45091;-91
2022/07/15 11:12:32;;;;;;;;;4.33;3.00;;;;;55.86;25.17;101956.75;6318628;22;45164;-94
2022/07/15 11:15:27;;;;;;;;;3.67;1.00;;;;;56.38;24.66;101959.22;6318496;22;45191;-96
2022/07/15 11:18:03;;;;;;;;;1.67;0.00;;;;;56.82;24.21;101964.53;6318206;22;48470;-94
2022/07/15 11:20:33;;;;;;;;;0.33;0.00;;;;;57.25;23.98;101952.00;6267977;22;44795;-94
2022/07/15 11:23:02;;;;;;;;;0.00;0.00;;;;;57.72;23.78;101962.38;6285200;22;45554;-91
2022/07/15 11:25:30;;;;;;;;;0.00;0.00;;;;;58.11;22.68;101952.25;6316525;22;45427;-94
2022/07/15 11:28:17;;;;;;;;;0.00;0.00;;;;;58.40;22.68;101929.31;6320392;22;45948;-96
2022/07/15 11:30:53;;;;;;;;;0.00;0.00;;;;;58.87;23.02;101934.66;6321890;22;45383;-93
2022/07/15 11:33:29;;;;;;;;;0.00;0.00;;;;;59.32;22.72;101931.88;6324447;22;45224;-96
2022/07/15 11:36:00;;;;;;;;;0.00;0.00;;;;;59.70;21.71;101924.28;6321355;22;44823;-95
2022/07/15 11:38:41;;;;;;;;;0.00;0.00;;;;;60.08;21.35;101925.13;6322139;22;45634;-95
2022/07/15 11:47:18;;;;;;;;;0.00;0.00;;;;;61.39;20.39;101920.00;6254132;22;45339;-96
2022/07/15 11:50:36;;;;;;;;;;;;;;;;;;;;;
2022/07/15 11:57:20;;;;;;;;;0.00;0.00;;;;;62.41;19.76;101931.16;6250786;22;44853;-96
2022/07/15 12:00:15;;;;;;;;;0.00;0.00;;;;;62.72;19.59;101922.31;6255565;22;44841;-95
2022/07/15 12:02:49;;;;;;;;;0.00;0.00;;;;;62.91;19.38;101922.94;6233297;22;46926;-96
2022/07/15 12:06:04;;;;;;;;;0.00;0.00;;;;;62.83;18.59;101929.94;6232989;22;45406;-96
2022/07/15 12:13:15;;;;;;;;;;;;;;;;;;;;;
2022/07/15 12:30:47;;;;;;;;;1.00;0.00;;;;;65.14;17.66;101902.00;5943667;23;45153;-95
2022/07/15 12:33:38;;;;;;;;;0.00;0.00;;;;;65.64;18.02;101932.22;5909194;24;45546;-96
2022/07/15 12:36:49;;;;;;;;;0.00;0.00;;;;;65.91;17.61;101922.59;5911461;23;45370;-95
2022/07/15 12:59:09;;;;;;;;;;;;;;;;;;;;;
2022/07/15 14:27:05;;;;;;;;;0.00;0.00;;;;;69.27;14.68;101862.38;6318042;22;45389;-95
2022/07/15 14:29:57;;;;;;;;;0.00;0.00;;;;;69.05;14.82;101854.34;6323581;22;44693;-95
2022/07/15 14:34:58;;;;;;;;;6.50;6.25;;;;;68.72;14.35;101860.75;6315176;22;45226;-88
2022/07/15 14:37:23;;;;;;;;;0.00;0.00;;;;;68.38;15.10;101863.38;6285617;22;48513;-92
2022/07/15 14:39:49;;;;;;;;;0.00;0.00;;;;;67.94;14.87;101862.34;6287108;22;45573;-89
2022/07/15 14:42:14;;;;;;;;;1.00;1.00;;;;;67.67;15.23;101855.91;6285959;22;45313;-93
2022/07/15 14:44:39;;;;;;;;;0.00;0.00;;;;;67.57;15.58;101856.00;6323427;22;45225;-92
2022/07/15 14:47:06;;;;;;;;;0.00;0.00;;;;;67.37;15.09;101863.53;6321617;22;46046;-90
2022/07/15 14:49:31;;;;;;;;;0.00;0.00;;;;;67.01;15.18;101855.97;6318579;22;45205;-91
2022/07/15 14:51:56;;;;;;;;;1.00;1.00;;;;;66.51;15.05;101848.91;6285263;22;45302;-91
2022/07/15 14:54:22;;;;;;;;;3.50;3.50;;;;;64.99;15.36;101845.69;6314161;22;52616;-90
2022/07/15 14:56:48;;;;;;;;;0.00;0.00;;;;;62.25;16.16;101828.59;6259896;22;47153;-91
2022/07/15 14:59:13;;;;;;;;;1.00;1.00;;;;;59.17;16.45;101831.31;6286076;22;45844;-91
2022/07/15 15:01:39;;;;;;;;;0.00;0.00;;;;;56.35;17.25;101822.50;6288722;22;45251;-91
2022/07/15 15:04:04;;;;;;;;;0.00;0.00;;;;;53.87;18.08;101815.44;6287653;22;45477;-91
2022/07/15 15:06:29;;;;;;;;;0.00;0.00;;;;;51.70;18.67;101815.34;6314571;22;45602;-92
2022/07/15 15:08:55;;;;;;;;;0.00;0.00;;;;;49.79;18.91;101820.59;6313178;22;45280;-90
2022/07/15 15:11:20;;;;;;;;;0.00;0.00;;;;;48.05;20.41;101814.19;6281213;22;45167;-91
2022/07/15 15:13:45;;;;;;;;;0.00;0.00;;;;;46.61;20.83;101823.25;6288629;22;44816;-90
2022/07/15 15:16:11;;;;;;;;;0.67;0.00;;;;;45.32;22.01;101818.91;6294461;22;46593;-90
2022/07/15 15:18:36;;;;;;;;;1.00;0.00;;;;;44.18;22.43;101818.28;6319578;22;45265;-90
2022/07/15 15:21:01;;;;;;;;;0.00;0.00;;;;;43.09;22.99;101809.31;6288369;22;55905;-91
2022/07/15 15:23:27;;;;;;;;;0.00;0.00;;;;;42.18;23.28;101826.22;6286052;22;45404;-90
2022/07/15 15:28:36;;;;;;;;;0.00;0.00;;;;;40.44;24.70;101822.44;6311505;22;45499;-93
2022/07/15 15:31:02;;;;;;;;;0.00;0.00;;;;;39.80;25.04;101815.50;6287236;22;45717;-92
2022/07/15 15:33:27;;;;;;;;;0.00;0.00;;;;;39.26;26.09;101826.94;6306470;22;45436;-93
2022/07/15 15:35:52;;;;;;;;;0.33;0.33;;;;;38.71;26.36;101805.41;6282019;22;47122;-92
2022/07/15 15:38:18;;;;;;;;;0.00;0.00;;;;;38.23;26.79;101811.78;6284525;22;45349;-91
2022/07/15 15:40:43;;;;;;;;;0.00;0.00;;;;;37.78;27.14;101806.91;6281572;22;44828;-92
2022/07/15 15:43:09;;;;;;;;;0.00;0.00;;;;;37.39;27.65;101807.13;6283658;22;45252;-92
2022/07/15 15:45:34;;;;;;;;;0.00;0.00;;;;;36.94;28.01;101807.53;6282042;22;47214;-89
2022/07/15 15:48:00;;;;;;;;;0.00;0.00;;;;;36.60;28.23;101814.63;6280381;22;45303;-90
2022/07/15 15:50:26;;;;;;;;;0.00;0.00;;;;;36.26;27.96;101809.81;6310775;22;45283;-89
2022/07/15 15:52:51;;;;;;;;;0.00;0.00;;;;;35.97;28.60;101807.53;6287165;22;44749;-91
2022/07/15 15:55:17;;;;;;;;;0.00;0.00;;;;;35.71;29.12;101814.16;6287252;22;45383;-91
2022/07/15 15:57:43;;;;;;;;;0.00;0.00;;;;;35.36;29.71;101791.06;6254138;22;45210;-89
2022/07/15 16:00:10;;;;;;;;;0.00;0.00;;;;;35.14;29.79;101792.00;6279729;22;45358;-88
2022/07/15 16:02:35;;;;;;;;;0.00;0.00;;;;;34.94;29.82;101798.31;6275826;22;45297;-90
2022/07/15 16:05:00;;;;;;;;;0.00;0.00;;;;;34.70;30.48;101788.31;6279608;22;46994;-89
2022/07/15 16:07:27;;;;;;;;;0.00;0.00;;;;;34.45;30.80;101781.16;6281850;22;45292;-88
2022/07/15 16:09:53;;;;;;;;;0.00;0.00;;;;;34.30;30.59;101785.34;6254729;22;45466;-89
2022/07/15 16:12:18;;;;;;;;;0.00;0.00;;;;;34.11;30.76;101784.22;6280222;22;45556;-89
2022/07/15 16:14:43;;;;;;;;;0.00;0.00;;;;;33.95;31.14;101775.75;6281099;22;48178;-89
2022/07/15 16:17:09;;;;;;;;;0.00;0.00;;;;;33.82;31.12;101771.72;6280804;22;51630;-90
2022/07/15 16:19:34;;;;;;;;;0.00;0.00;;;;;33.70;31.43;101773.03;6284173;22;45234;-91
2022/07/15 16:24:43;;;;;;;;;0.00;0.00;;;;;33.44;31.84;101773.94;6287579;22;45769;-95
2022/07/15 16:27:09;;;;;;;;;1.00;1.00;;;;;33.36;31.65;101786.03;6287313;22;45477;-92
2022/07/15 16:29:38;;;;;;;;;0.00;0.00;;;;;33.25;32.41;101772.78;6283687;22;45317;-92
2022/07/15 16:32:03;;;;;;;;;0.67;0.00;;;;;33.11;32.01;101764.16;6284254;22;45512;-93
2022/07/15 16:34:32;;;;;;;;;0.00;0.00;;;;;32.99;32.30;101754.59;6288538;22;48725;-92
2022/07/15 16:36:59;;;;;;;;;0.00;0.00;;;;;32.91;32.24;101766.69;6287668;22;48949;-93
2022/07/15 16:39:26;;;;;;;;;0.00;0.00;;;;;32.81;32.57;101764.25;6286300;22;44789;-94
2022/07/15 16:41:51;;;;;;;;;0.00;0.00;;;;;32.70;32.58;101763.72;6262530;22;45409;-94
2022/07/15 16:44:16;;;;;;;;;0.00;0.00;;;;;32.58;33.11;101762.25;6315332;22;47141;-93
2022/07/15 16:46:42;;;;;;;;;0.00;0.00;;;;;32.47;32.88;101752.63;6314730;22;51549;-93
2022/07/15 16:49:07;;;;;;;;;0.67;0.67;;;;;32.38;33.02;101755.63;6292755;22;45369;-93
2022/07/15 16:51:33;;;;;;;;;0.00;0.00;;;;;32.27;33.31;101755.94;6313648;22;45613;-93
2022/07/15 16:53:58;;;;;;;;;2.00;0.00;;;;;32.19;33.88;101758.91;6320333;22;47062;-94
2022/07/15 16:56:23;;;;;;;;;1.00;0.00;;;;;32.14;33.52;101763.63;6296010;22;45338;-94
2022/07/15 16:58:52;;;;;;;;;0.00;0.00;;;;;32.06;33.70;101772.81;6322645;22;44784;-96
2022/07/15 17:01:17;;;;;;;;;1.00;0.00;;;;;31.95;33.58;101770.44;6293817;22;45445;-95
2022/07/15 17:03:42;;;;;;;;;0.00;0.00;;;;;31.86;33.77;101778.84;6318789;22;47018;-95
2022/07/15 17:06:12;;;;;;;;;0.00;0.00;;;;;31.66;34.11;101740.50;6316440;22;45296;-95
2022/07/15 17:08:38;;;;;;;;;0.00;0.00;;;;;31.66;34.16;101751.34;6317761;22;45369;-93
2022/07/15 17:11:05;;;;;;;;;0.00;0.00;;;;;31.60;34.54;101761.47;6291630;22;45284;-92
2022/07/15 17:13:31;;;;;;;;;0.00;0.00;;;;;31.52;34.54;101750.81;6290477;22;60513;-95
2022/07/15 17:15:56;;;;;;;;;0.00;0.00;;;;;31.48;34.20;101758.16;6318353;22;45442;-95
2022/07/15 17:18:21;;;;;;;;;1.00;0.00;;;;;31.34;34.51;101742.22;6319210;22;45295;-95
2022/07/15 17:20:47;;;;;;;;;0.00;0.00;;;;;31.30;34.83;101749.59;6293824;22;45246;-95
2022/07/15 17:23:15;;;;;;;;;0.00;0.00;;;;;31.24;35.04;101749.72;6318575;22;45917;-96
2022/07/15 17:25:41;;;;;;;;;1.00;1.00;;;;;31.20;34.93;101759.78;6268494;22;45286;-96
2022/07/15 17:28:09;;;;;;;;;0.00;0.00;;;;;31.09;35.14;101751.03;6296492;22;45194;-93
2022/07/15 17:30:34;;;;;;;;;0.00;0.00;;;;;31.04;34.72;101753.88;6320431;22;45572;-95
2022/07/15 17:33:00;;;;;;;;;0.00;0.00;;;;;30.99;35.05;101753.09;6320102;22;48006;-96
2022/07/15 17:35:27;;;;;;;;;0.00;0.00;;;;;30.92;35.18;101749.63;6288812;22;45356;-95
2022/07/15 17:37:59;;;;;;;;;0.67;0.00;;;;;30.89;35.04;101746.97;6290896;22;44784;-95
2022/07/15 17:40:26;;;;;;;;;0.00;0.00;;;;;30.82;35.05;101751.66;6290814;22;45309;-93
2022/07/15 17:42:52;;;;;;;;;0.00;0.00;;;;;30.78;35.14;101755.38;6291284;22;46734;-95
2022/07/15 17:45:18;;;;;;;;;0.00;0.00;;;;;30.71;35.46;101751.94;6286683;22;45886;-89
2022/07/15 17:47:43;;;;;;;;;2.00;0.00;;;;;30.62;35.50;101754.84;6310666;22;45330;-85
2022/07/15 17:50:09;;;;;;;;;0.00;0.00;;;;;30.53;35.36;101747.84;6313991;22;45340;-89
2022/07/15 17:52:34;;;;;;;;;2.00;0.00;;;;;30.51;35.40;101747.00;6313327;22;46202;-88
2022/07/15 17:54:59;;;;;;;;;1.00;0.00;;;;;30.41;35.38;101738.19;6309059;22;57519;-87
2022/07/15 17:57:25;;;;;;;;;0.00;0.00;;;;;30.40;35.29;101741.81;6313892;22;45309;-87
2022/07/15 17:59:50;;;;;;;;;0.00;0.00;;;;;30.34;35.47;101743.72;6281782;22;45831;-89
2022/07/15 18:02:16;;;;;;;;;1.00;1.00;;;;;30.27;35.79;101744.75;6312135;22;45307;-88
2022/07/15 18:04:41;;;;;;;;;0.00;0.00;;;;;30.24;35.97;101736.72;6313196;22;46728;-91
2022/07/15 18:07:06;;;;;;;;;0.00;0.00;;;;;30.20;35.83;101737.72;6277462;22;45545;-89
2022/07/15 18:09:32;;;;;;;;;1.33;1.33;;;;;30.18;36.24;101742.25;6313297;22;45304;-89
2022/07/15 18:11:57;;;;;;;;;1.00;1.00;;;;;30.14;35.99;101745.94;6314019;22;46390;-87
2022/07/15 18:14:22;;;;;;;;;1.33;1.33;;;;;30.05;36.01;101737.09;6314040;22;47599;-91
2022/07/15 18:16:49;;;;;;;;;2.33;2.33;;;;;30.02;36.39;101739.91;6288800;22;46301;-92
2022/07/15 18:19:16;;;;;;;;;1.00;1.00;;;;;29.88;35.80;101718.53;6263135;22;44891;-90
2022/07/15 18:21:42;;;;;;;;;2.67;2.33;;;;;29.89;36.65;101728.44;6318192;22;45678;-92
2022/07/15 18:24:11;;;;;;;;;6.33;4.00;;;;;29.89;36.28;101734.72;6290471;22;45338;-94
2022/07/15 18:26:38;;;;;;;;;4.00;4.00;;;;;29.86;36.32;101742.03;6289314;22;45374;-92
2022/07/15 18:29:04;;;;;;;;;3.00;3.00;;;;;29.68;36.77;101717.09;6319500;22;44751;-95
2022/07/15 18:31:30;;;;;;;;;4.67;4.33;;;;;29.71;36.58;101724.25;6290297;22;48356;-93
2022/07/15 18:33:56;;;;;;;;;4.00;3.00;;;;;29.71;36.50;101736.00;6293386;22;45353;-93
2022/07/15 18:36:22;;;;;;;;;0.00;0.00;;;;;29.61;36.62;101732.53;6294300;22;45444;-96
2022/07/15 18:38:47;;;;;;;;;2.67;1.67;;;;;29.59;36.69;101728.09;6292522;22;45384;-92
2022/07/15 18:41:13;;;;;;;;;0.00;0.00;;;;;29.47;36.94;101722.00;6290194;22;48687;-92
2022/07/15 18:43:41;;;;;;;;;3.00;2.00;;;;;29.48;37.11;101729.22;6316882;22;44705;-91
2022/07/15 18:46:10;;;;;;;;;0.00;0.00;;;;;29.47;36.81;101735.53;6292039;22;45364;-91
2022/07/15 18:48:36;;;;;;;;;1.00;1.00;;;;;29.41;37.10;101732.91;6284539;22;45208;-92
2022/07/15 18:51:02;;;;;;;;;1.00;1.00;;;;;29.36;36.99;101733.00;6314873;22;45368;-91
2022/07/15 18:53:27;;;;;;;;;1.00;1.00;;;;;29.33;37.18;101733.06;6289981;22;46224;-91
2022/07/15 18:55:53;;;;;;;;;2.00;1.00;;;;;29.27;37.02;101734.09;6286559;22;45274;-94